createdAt,value
2018-09-24T00:00:34.240Z,10.60
2018-09-24T00:01:14.572Z,11.48
2018-09-24T00:01:54.643Z,10.32
2018-09-24T00:02:34.857Z,12.40
2018-09-24T00:03:15.089Z,11.00
2018-09-24T00:03:55.537Z,12.82
2018-09-24T00:04:35.665Z,10.45
2018-09-24T00:05:15.990Z,12.00
2018-09-24T00:05:56.004Z,9.10
2018-09-24T00:06:36.420Z,8.73
2018-09-24T00:07:16.710Z,10.43
2018-09-24T00:07:57.101Z,10.35
2018-09-24T00:08:37.508Z,12.23
2018-09-24T00:09:17.871Z,12.07
2018-09-24T00:09:58.152Z,9.73
2018-09-24T00:10:38.524Z,11.43
2018-09-24T00:11:19.011Z,11.55
2018-09-24T00:11:58.914Z,11.48
2018-09-24T00:12:39.256Z,13.08
2018-09-24T00:13:19.472Z,9.88
2018-09-24T00:13:59.974Z,11.40
2018-09-24T00:14:40.232Z,10.78
2018-09-24T00:15:20.505Z,9.58
2018-09-24T00:16:00.845Z,11.30
2018-09-24T00:16:41.029Z,11.83
2018-09-24T00:17:21.262Z,12.73
2018-09-24T00:18:01.293Z,9.65
2018-09-24T00:18:41.495Z,10.40
2018-09-24T00:19:22.400Z,11.78
2018-09-24T00:20:02.723Z,13.43
2018-09-24T00:20:42.902Z,11.45
2018-09-24T00:21:23.260Z,8.55
2018-09-24T00:22:03.494Z,9.78
2018-09-24T00:22:43.735Z,12.30
2018-09-24T00:23:23.961Z,9.35
2018-09-24T00:24:04.147Z,10.78
2018-09-24T00:24:44.292Z,11.20
2018-09-24T00:25:24.418Z,10.38
2018-09-24T00:26:04.765Z,13.72
2018-09-24T00:26:44.749Z,10.95
2018-09-24T00:27:25.028Z,13.45
2018-09-24T00:28:05.555Z,12.05
2018-09-24T00:28:46.023Z,9.80
2018-09-24T00:29:26.372Z,13.05
2018-09-24T00:30:06.625Z,15.43
2018-09-24T00:30:46.863Z,13.05
2018-09-24T00:31:27.106Z,13.10
2018-09-24T00:32:07.372Z,13.58
2018-09-24T00:32:47.667Z,11.15
2018-09-24T00:33:27.934Z,9.58
2018-09-24T00:34:08.237Z,11.40
2018-09-24T00:34:48.623Z,13.78
2018-09-24T00:35:28.741Z,14.03
2018-09-24T00:36:09.019Z,12.35
2018-09-24T00:36:49.175Z,11.95
2018-09-24T00:37:29.219Z,11.68
2018-09-24T00:38:09.906Z,11.78
2018-09-24T00:38:49.968Z,13.83
2018-09-24T00:39:30.181Z,10.32
2018-09-24T00:40:10.488Z,13.45
2018-09-24T00:40:50.456Z,10.10
2018-09-24T00:41:30.664Z,15.08
2018-09-24T00:42:10.861Z,10.58
2018-09-24T00:42:51.020Z,11.35
2018-09-24T00:43:31.485Z,13.78
2018-09-24T00:44:11.699Z,11.55
2018-09-24T00:44:52.032Z,10.18
2018-09-24T00:45:32.276Z,14.80
2018-09-24T00:46:12.385Z,11.15
2018-09-24T00:46:52.605Z,12.78
2018-09-24T00:47:33.042Z,14.05
2018-09-24T00:48:13.097Z,11.48
2018-09-24T00:48:53.359Z,12.45
2018-09-24T00:49:33.683Z,11.33
2018-09-24T00:50:14.127Z,14.43
2018-09-24T00:50:54.297Z,10.60
2018-09-24T00:51:34.484Z,12.82
2018-09-24T00:52:14.993Z,10.72
2018-09-24T00:52:55.157Z,17.50
2018-09-24T00:53:35.269Z,11.97
2018-09-24T00:54:15.496Z,13.15
2018-09-24T00:54:55.625Z,13.05
2018-09-24T00:55:36.065Z,14.55
2018-09-24T00:56:16.114Z,13.10
2018-09-24T00:56:56.325Z,14.85
2018-09-24T00:57:36.571Z,16.82
2018-09-24T00:58:16.810Z,14.80
2018-09-24T00:58:56.972Z,11.38
2018-09-24T00:59:37.218Z,10.85
2018-09-24T01:00:17.472Z,10.60
2018-09-24T01:00:57.612Z,15.58
2018-09-24T01:01:37.731Z,12.00
2018-09-24T01:02:17.822Z,12.35
2018-09-24T01:02:57.992Z,12.10
2018-09-24T01:03:38.262Z,13.28
2018-09-24T01:04:18.504Z,12.35
2018-09-24T01:04:58.769Z,15.75
2018-09-24T01:05:38.867Z,16.60
2018-09-24T01:06:19.020Z,11.70
2018-09-24T01:06:59.181Z,13.50
2018-09-24T01:07:39.355Z,12.18
2018-09-24T01:08:19.583Z,15.32
2018-09-24T01:08:59.683Z,12.37
2018-09-24T01:09:39.867Z,13.15
2018-09-24T01:10:20.036Z,13.55
2018-09-24T01:11:00.122Z,12.93
2018-09-24T01:11:40.781Z,11.10
2018-09-24T01:12:20.933Z,13.55
2018-09-24T01:13:01.289Z,10.95
2018-09-24T01:13:41.599Z,10.80
2018-09-24T01:14:21.897Z,10.63
2018-09-24T01:15:02.094Z,12.58
2018-09-24T01:15:42.431Z,11.90
2018-09-24T01:16:22.691Z,13.28
2018-09-24T01:17:02.931Z,11.97
2018-09-24T01:17:43.424Z,11.95
2018-09-24T01:18:23.375Z,13.68
2018-09-24T01:19:03.570Z,10.18
2018-09-24T01:19:43.839Z,11.12
2018-09-24T01:20:24.160Z,12.65
2018-09-24T01:21:04.396Z,13.22
2018-09-24T01:21:44.605Z,11.03
2018-09-24T01:22:25.035Z,13.55
2018-09-24T01:23:05.254Z,13.03
2018-09-24T01:23:45.476Z,13.45
2018-09-24T01:24:25.449Z,14.13
2018-09-24T01:25:06.301Z,10.90
2018-09-24T01:25:46.287Z,11.53
2018-09-24T01:26:26.655Z,12.80
2018-09-24T01:27:07.186Z,13.08
2018-09-24T01:27:47.288Z,13.50
2018-09-24T01:28:27.479Z,10.58
2018-09-24T01:29:08.069Z,12.95
2018-09-24T01:29:48.385Z,11.85
2018-09-24T01:30:28.608Z,12.80
2018-09-24T01:31:08.761Z,17.75
2018-09-24T01:31:49.119Z,12.35
2018-09-24T01:32:29.708Z,12.33
2018-09-24T01:33:09.692Z,12.53
2018-09-24T01:33:49.764Z,16.40
2018-09-24T01:34:30.098Z,12.45
2018-09-24T01:35:10.193Z,14.90
2018-09-24T01:35:50.216Z,14.47
2018-09-24T01:36:30.524Z,12.58
2018-09-24T01:37:10.773Z,13.35
2018-09-24T01:37:51.062Z,11.70
2018-09-24T01:38:31.456Z,14.63
2018-09-24T01:39:11.532Z,14.18
2018-09-24T01:39:52.749Z,11.15
2018-09-24T01:40:33.336Z,14.05
2018-09-24T01:41:13.435Z,12.78
2018-09-24T01:41:53.603Z,14.18
2018-09-24T01:42:33.895Z,14.75
2018-09-24T01:43:14.014Z,12.33
2018-09-24T01:43:54.484Z,15.85
2018-09-24T01:44:34.866Z,14.40
2018-09-24T01:45:15.298Z,14.07
2018-09-24T01:45:55.444Z,14.87
2018-09-24T01:46:35.748Z,12.28
2018-09-24T01:47:16.179Z,14.90
2018-09-24T01:47:56.496Z,16.77
2018-09-24T01:48:36.730Z,12.70
2018-09-24T01:49:17.099Z,11.45
2018-09-24T01:49:57.015Z,11.93
2018-09-24T01:50:37.291Z,14.07
2018-09-24T01:51:17.728Z,13.72
2018-09-24T01:51:57.999Z,15.25
2018-09-24T01:52:38.225Z,14.05
2018-09-24T01:53:18.637Z,13.15
2018-09-24T01:53:59.084Z,12.95
2018-09-24T01:54:39.124Z,13.60
2018-09-24T01:55:19.396Z,13.18
2018-09-24T01:55:59.820Z,12.00
2018-09-24T01:56:39.942Z,13.15
2018-09-24T01:57:20.336Z,16.30
2018-09-24T01:58:00.784Z,16.15
2018-09-24T01:58:41.157Z,15.20
2018-09-24T01:59:21.497Z,19.10
2018-09-24T02:00:01.785Z,13.83
2018-09-24T02:00:41.925Z,11.20
2018-09-24T02:01:22.282Z,12.10
2018-09-24T02:02:02.616Z,13.83
2018-09-24T02:02:42.652Z,15.00
2018-09-24T02:03:31.299Z,14.00
2018-09-24T02:04:11.361Z,15.38
2018-09-24T02:04:52.100Z,12.68
2018-09-24T02:05:32.142Z,13.53
2018-09-24T02:06:12.362Z,16.52
2018-09-24T02:06:59.921Z,13.08
2018-09-24T02:07:40.976Z,14.15
2018-09-24T02:08:21.227Z,14.47
2018-09-24T02:09:01.461Z,11.15
2018-09-24T02:09:41.601Z,12.60
2018-09-24T02:10:23.751Z,13.90
2018-09-24T02:11:03.922Z,13.65
2018-09-24T02:11:44.580Z,14.80
2018-09-24T02:12:24.851Z,14.80
2018-09-24T02:13:05.128Z,14.83
2018-09-24T02:13:49.246Z,11.88
2018-09-24T02:14:29.433Z,13.65
2018-09-24T02:15:09.683Z,12.40
2018-09-24T02:15:50.117Z,13.20
2018-09-24T02:16:30.119Z,14.80
2018-09-24T02:17:15.406Z,13.93
2018-09-24T02:17:55.630Z,14.18
2018-09-24T02:18:36.010Z,13.08
2018-09-24T02:19:16.236Z,13.95
2018-09-24T02:19:56.640Z,11.33
2018-09-24T02:20:44.511Z,15.58
2018-09-24T02:21:24.638Z,10.88
2018-09-24T02:22:04.800Z,13.95
2018-09-24T02:22:45.079Z,13.05
2018-09-24T02:23:25.409Z,12.95
2018-09-24T02:24:06.154Z,13.20
2018-09-24T02:24:46.200Z,16.27
2018-09-24T02:25:26.272Z,11.38
2018-09-24T02:26:06.465Z,14.95
2018-09-24T02:26:46.460Z,13.48
2018-09-24T02:27:26.987Z,14.43
2018-09-24T02:28:07.126Z,11.55
2018-09-24T02:28:47.336Z,14.47
2018-09-24T02:29:27.661Z,12.18
2018-09-24T02:30:11.166Z,13.32
2018-09-24T02:30:51.441Z,18.52
2018-09-24T02:31:39.289Z,10.82
2018-09-24T02:32:19.791Z,10.30
2018-09-24T02:32:59.950Z,12.30
2018-09-24T02:33:39.952Z,13.62
2018-09-24T02:34:25.959Z,12.47
2018-09-24T02:35:06.193Z,14.55
2018-09-24T02:35:47.684Z,14.33
2018-09-24T02:36:28.075Z,11.28
2018-09-24T02:37:08.429Z,14.00
2018-09-24T02:37:48.685Z,17.00
2018-09-24T02:38:29.034Z,11.55
2018-09-24T02:39:10.193Z,12.98
2018-09-24T02:39:50.359Z,11.45
2018-09-24T02:40:30.472Z,16.05
2018-09-24T02:41:10.829Z,15.28
2018-09-24T02:41:53.278Z,13.78
2018-09-24T02:42:33.492Z,13.98
2018-09-24T02:43:14.812Z,15.30
2018-09-24T02:43:54.784Z,12.45
2018-09-24T02:44:34.909Z,12.58
2018-09-24T02:45:15.029Z,14.25
2018-09-24T02:45:55.667Z,13.30
2018-09-24T02:46:41.802Z,13.00
2018-09-24T02:47:22.601Z,13.98
2018-09-24T02:48:02.716Z,11.73
2018-09-24T02:48:43.076Z,19.35
2018-09-24T02:49:23.196Z,11.57
2018-09-24T02:50:03.461Z,12.50
2018-09-24T02:50:43.653Z,12.47
2018-09-24T02:51:23.811Z,14.58
2018-09-24T02:52:04.690Z,14.70
2018-09-24T02:52:44.824Z,13.35
2018-09-24T02:53:25.024Z,11.48
2018-09-24T02:54:05.322Z,10.90
2018-09-24T02:54:45.853Z,9.65
2018-09-24T02:55:25.815Z,11.38
2018-09-24T02:56:06.475Z,15.32
2018-09-24T02:56:48.940Z,19.45
2018-09-24T02:57:29.462Z,11.90
2018-09-24T02:58:14.829Z,15.98
2018-09-24T02:58:54.853Z,11.10
2018-09-24T02:59:35.403Z,16.32
2018-09-24T03:00:20.612Z,14.33
2018-09-24T03:01:00.947Z,12.45
2018-09-24T03:01:41.098Z,10.93
2018-09-24T03:02:21.429Z,14.33
2018-09-24T03:03:08.278Z,11.93
2018-09-24T03:03:48.178Z,11.68
2018-09-24T03:04:28.176Z,11.63
2018-09-24T03:05:08.497Z,14.90
2018-09-24T03:05:48.720Z,10.95
2018-09-24T03:06:33.682Z,10.35
2018-09-24T03:07:14.138Z,14.75
2018-09-24T03:08:01.170Z,11.05
2018-09-24T03:08:41.183Z,11.25
2018-09-24T03:09:21.230Z,11.97
2018-09-24T03:10:01.814Z,12.10
2018-09-24T03:10:42.326Z,14.05
2018-09-24T03:11:22.305Z,13.05
2018-09-24T03:12:02.745Z,11.20
2018-09-24T03:12:48.281Z,11.53
2018-09-24T03:13:28.200Z,13.00
2018-09-24T03:14:08.889Z,11.10
2018-09-24T03:14:49.268Z,11.28
2018-09-24T03:15:37.618Z,10.08
2018-09-24T03:16:17.979Z,9.60
2018-09-24T03:16:57.990Z,10.25
2018-09-24T03:17:38.158Z,12.15
2018-09-24T03:18:18.459Z,13.35
2018-09-24T03:18:59.793Z,8.25
2018-09-24T03:19:39.767Z,11.33
2018-09-24T03:20:19.850Z,9.33
2018-09-24T03:21:00.061Z,12.18
2018-09-24T03:21:40.268Z,15.80
2018-09-24T03:22:23.300Z,11.40
2018-09-24T03:23:03.787Z,11.75
2018-09-24T03:23:44.276Z,12.10
2018-09-24T03:24:24.619Z,13.78
2018-09-24T03:25:05.468Z,11.22
2018-09-24T03:25:45.669Z,12.03
2018-09-24T03:26:26.256Z,15.88
2018-09-24T03:27:06.601Z,9.70
2018-09-24T03:27:46.791Z,12.23
2018-09-24T03:28:26.774Z,15.43
2018-09-24T03:29:07.090Z,14.00
2018-09-24T03:29:47.306Z,14.15
2018-09-24T03:30:42.603Z,9.10
2018-09-24T03:31:22.828Z,11.28
2018-09-24T03:32:03.111Z,9.20
2018-09-24T03:32:43.336Z,11.78
2018-09-24T03:33:23.488Z,12.20
2018-09-24T03:34:03.547Z,11.12
2018-09-24T03:34:43.666Z,11.30
2018-09-24T03:35:23.796Z,10.43
2018-09-24T03:36:03.969Z,11.97
2018-09-24T03:36:44.503Z,11.38
2018-09-24T03:37:24.761Z,13.98
2018-09-24T03:38:05.028Z,10.98
2018-09-24T03:38:45.249Z,12.60
2018-09-24T03:39:25.392Z,11.85
2018-09-24T03:40:05.670Z,11.05
2018-09-24T03:40:46.199Z,11.78
2018-09-24T03:41:26.203Z,13.28
2018-09-24T03:42:06.421Z,10.18
2018-09-24T03:42:46.456Z,13.18
2018-09-24T03:43:26.622Z,12.00
2018-09-24T03:44:07.336Z,10.65
2018-09-24T03:44:47.486Z,11.35
2018-09-24T03:45:28.692Z,12.47
2018-09-24T03:46:08.929Z,11.18
2018-09-24T03:46:48.861Z,11.53
2018-09-24T03:47:28.904Z,12.30
2018-09-24T03:48:09.181Z,12.05
2018-09-24T03:48:49.286Z,13.08
2018-09-24T03:49:29.503Z,10.98
2018-09-24T03:50:09.981Z,12.33
2018-09-24T03:50:50.181Z,13.05
2018-09-24T03:51:30.335Z,12.33
2018-09-24T03:52:10.518Z,12.23
2018-09-24T03:52:50.688Z,10.55
2018-09-24T03:53:30.882Z,15.58
2018-09-24T03:54:11.116Z,11.93
2018-09-24T03:54:51.244Z,10.30
2018-09-24T03:55:31.489Z,12.90
2018-09-24T03:56:11.903Z,11.22
2018-09-24T03:56:52.307Z,10.10
2018-09-24T03:57:32.525Z,13.78
2018-09-24T03:58:13.115Z,11.97
2018-09-24T03:58:53.187Z,9.28
2018-09-24T03:59:33.396Z,10.40
2018-09-24T04:00:13.670Z,10.70
2018-09-24T04:00:54.089Z,12.03
2018-09-24T04:01:34.434Z,10.00
2018-09-24T04:02:14.401Z,11.65
2018-09-24T04:02:54.578Z,13.28
2018-09-24T04:03:34.723Z,12.43
2018-09-24T04:04:20.541Z,11.08
2018-09-24T04:06:56.038Z,12.50
2018-09-24T04:07:41.756Z,10.13
2018-09-24T04:08:27.620Z,10.38
2018-09-24T04:09:13.914Z,9.03
2018-09-24T04:09:59.714Z,13.10
2018-09-24T04:10:45.392Z,12.73
2018-09-24T04:11:31.128Z,12.20
2018-09-24T04:12:17.223Z,10.10
2018-09-24T04:13:02.869Z,10.98
2018-09-24T04:13:49.065Z,9.63
2018-09-24T04:14:34.791Z,10.63
2018-09-24T04:15:20.412Z,11.30
2018-09-24T04:16:06.078Z,10.50
2018-09-24T04:16:51.805Z,12.30
2018-09-24T04:17:37.271Z,9.15
2018-09-24T04:18:23.083Z,10.38
2018-09-24T04:19:08.788Z,13.28
2018-09-24T04:19:54.468Z,12.43
2018-09-24T04:20:40.293Z,11.57
2018-09-24T04:21:25.973Z,11.55
2018-09-24T04:22:11.950Z,9.20
2018-09-24T04:22:57.751Z,11.18
2018-09-24T04:23:43.529Z,10.55
2018-09-24T04:24:29.266Z,13.32
2018-09-24T04:25:15.045Z,9.63
2018-09-24T04:26:00.903Z,9.03
2018-09-24T04:26:46.814Z,11.38
2018-09-24T04:27:32.573Z,13.60
2018-09-24T04:28:18.450Z,16.85
2018-09-24T04:29:04.246Z,11.90
2018-09-24T04:29:49.967Z,12.53
2018-09-24T04:30:35.779Z,9.18
2018-09-24T04:31:21.460Z,9.98
2018-09-24T04:32:07.136Z,14.75
2018-09-24T04:32:53.076Z,12.07
2018-09-24T04:33:39.096Z,10.58
2018-09-24T04:34:24.836Z,9.70
2018-09-24T04:35:11.252Z,10.35
2018-09-24T04:35:57.020Z,10.35
2018-09-24T04:36:42.706Z,12.60
2018-09-24T04:37:28.332Z,13.48
2018-09-24T04:38:14.007Z,12.73
2018-09-24T04:38:59.628Z,5.42
2018-09-24T04:39:45.663Z,10.78
2018-09-24T04:40:31.661Z,9.63
2018-09-24T04:41:17.547Z,10.00
2018-09-24T04:42:03.321Z,10.60
2018-09-24T04:42:49.297Z,10.13
2018-09-24T04:43:35.058Z,12.70
2018-09-24T04:44:20.688Z,11.65
2018-09-24T04:45:06.367Z,9.10
2018-09-24T04:45:52.666Z,8.73
2018-09-24T04:46:38.389Z,13.10
2018-09-24T04:47:24.344Z,14.23
2018-09-24T04:48:10.189Z,10.00
2018-09-24T04:48:55.982Z,11.88
2018-09-24T04:49:41.633Z,8.23
2018-09-24T04:50:27.373Z,11.88
2018-09-24T04:51:13.171Z,12.50
2018-09-24T04:51:59.041Z,12.85
2018-09-24T04:52:44.785Z,11.48
2018-09-24T04:53:30.443Z,9.40
2018-09-24T04:54:16.579Z,18.80
2018-09-24T04:55:02.241Z,12.47
2018-09-24T04:55:48.211Z,9.33
2018-09-24T04:56:33.905Z,13.32
2018-09-24T04:57:19.701Z,12.47
2018-09-24T04:58:05.433Z,10.70
2018-09-24T04:58:51.320Z,11.85
2018-09-24T04:59:37.086Z,9.78
2018-09-24T05:00:22.804Z,10.72
2018-09-24T05:01:08.410Z,12.68
2018-09-24T05:01:54.719Z,13.95
2018-09-24T05:02:40.456Z,12.98
2018-09-24T05:03:26.279Z,11.78
2018-09-24T05:04:12.216Z,10.95
2018-09-24T05:04:58.195Z,14.30
2018-09-24T05:05:44.067Z,10.40
2018-09-24T05:06:30.500Z,10.68
2018-09-24T05:07:16.217Z,14.03
2018-09-24T05:08:03.997Z,11.18
2018-09-24T05:08:51.403Z,11.93
2018-09-24T05:09:38.194Z,11.85
2018-09-24T05:10:24.278Z,9.68
2018-09-24T05:11:10.344Z,10.85
2018-09-24T05:11:56.096Z,10.88
2018-09-24T05:12:41.887Z,13.25
2018-09-24T05:13:27.910Z,10.08
2018-09-24T05:14:13.646Z,10.00
2018-09-24T05:14:59.597Z,11.65
2018-09-24T05:15:45.315Z,14.45
2018-09-24T05:16:31.098Z,12.10
2018-09-24T05:17:16.947Z,11.83
2018-09-24T05:18:02.894Z,12.28
2018-09-24T05:18:48.364Z,10.98
2018-09-24T05:19:34.076Z,10.23
2018-09-24T05:20:19.928Z,12.37
2018-09-24T05:21:05.944Z,10.68
2018-09-24T05:21:51.820Z,12.00
2018-09-24T05:22:37.755Z,10.55
2018-09-24T05:23:23.463Z,10.35
2018-09-24T05:24:09.350Z,10.60
2018-09-24T05:24:55.096Z,12.25
2018-09-24T05:25:40.800Z,11.15
2018-09-24T05:26:27.006Z,11.57
2018-09-24T05:27:12.932Z,11.40
2018-09-24T05:27:59.226Z,12.00
2018-09-24T05:28:44.988Z,8.70
2018-09-24T05:29:30.907Z,9.88
2018-09-24T05:30:17.000Z,10.95
2018-09-24T05:31:02.507Z,8.18
2018-09-24T05:31:48.261Z,12.00
2018-09-24T05:32:34.005Z,11.93
2018-09-24T05:33:19.930Z,11.50
2018-09-24T05:34:05.691Z,10.75
2018-09-24T05:34:51.337Z,8.98
2018-09-24T05:35:37.252Z,11.73
2018-09-24T05:36:22.882Z,15.15
2018-09-24T05:37:08.669Z,10.48
2018-09-24T05:37:54.275Z,14.45
2018-09-24T05:38:40.452Z,10.00
2018-09-24T05:39:26.611Z,12.80
2018-09-24T05:40:12.713Z,12.88
2018-09-24T05:40:58.288Z,9.28
2018-09-24T05:41:44.363Z,10.35
2018-09-24T05:42:29.795Z,10.82
2018-09-24T05:43:15.492Z,12.43
2018-09-24T05:44:02.570Z,10.68
2018-09-24T05:44:48.169Z,10.28
2018-09-24T05:45:34.751Z,10.93
2018-09-24T05:46:20.722Z,9.28
2018-09-24T05:47:06.673Z,11.33
2018-09-24T05:47:52.497Z,10.05
2018-09-24T05:48:38.222Z,8.88
2018-09-24T05:49:24.099Z,11.78
2018-09-24T05:50:10.132Z,7.97
2018-09-24T05:50:55.816Z,10.95
2018-09-24T05:51:41.567Z,14.60
2018-09-24T05:52:27.353Z,9.10
2018-09-24T05:53:13.159Z,14.87
2018-09-24T05:53:58.878Z,10.78
2018-09-24T05:54:44.594Z,10.75
2018-09-24T05:55:30.254Z,13.18
2018-09-24T05:56:15.902Z,11.00
2018-09-24T05:57:01.760Z,10.50
2018-09-24T05:57:47.322Z,11.38
2018-09-24T05:58:33.109Z,8.63
2018-09-24T05:59:18.930Z,10.80
2018-09-24T06:00:04.976Z,16.07
2018-09-24T06:00:50.621Z,7.83
2018-09-24T06:01:36.608Z,9.45
2018-09-24T06:07:28.268Z,7.85
2018-09-24T06:08:14.270Z,9.90
2018-09-24T06:09:04.359Z,11.80
2018-09-24T06:09:50.203Z,8.83
2018-09-24T06:10:36.116Z,10.08
2018-09-24T06:11:21.949Z,9.63
2018-09-24T06:12:07.901Z,11.83
2018-09-24T06:12:53.782Z,10.38
2018-09-24T06:13:40.732Z,9.48
2018-09-24T06:14:26.360Z,10.88
2018-09-24T06:15:12.694Z,9.25
2018-09-24T06:15:58.569Z,9.25
2018-09-24T06:16:44.289Z,6.47
2018-09-24T06:17:29.919Z,9.40
2018-09-24T06:18:16.232Z,10.25
2018-09-24T06:19:01.975Z,9.50
2018-09-24T06:19:47.704Z,9.53
2018-09-24T06:20:33.443Z,16.62
2018-09-24T06:21:19.193Z,11.05
2018-09-24T06:22:05.035Z,6.87
2018-09-24T06:22:50.960Z,12.03
2018-09-24T06:23:36.943Z,11.57
2018-09-24T06:24:22.651Z,8.53
2018-09-24T06:25:08.900Z,9.78
2018-09-24T06:25:54.904Z,8.95
2018-09-24T06:26:41.358Z,7.00
2018-09-24T06:27:27.132Z,9.25
2018-09-24T06:28:12.771Z,9.13
2018-09-24T06:28:58.561Z,13.65
2018-09-24T06:29:44.952Z,9.85
2018-09-24T06:30:30.724Z,11.00
2018-09-24T06:31:16.388Z,7.10
2018-09-24T06:32:02.151Z,8.25
2018-09-24T06:32:47.917Z,14.68
2018-09-24T06:33:33.864Z,8.05
2018-09-24T06:34:19.610Z,10.82
2018-09-24T06:35:05.361Z,10.08
2018-09-24T06:35:50.976Z,8.75
2018-09-24T06:36:36.841Z,8.13
2018-09-24T06:37:22.550Z,6.95
2018-09-24T06:38:08.477Z,9.08
2018-09-24T06:38:54.103Z,13.75
2018-09-24T06:39:39.806Z,13.78
2018-09-24T06:40:25.645Z,8.50
2018-09-24T06:41:11.686Z,12.73
2018-09-24T06:41:57.185Z,8.73
2018-09-24T06:42:42.968Z,8.43
2018-09-24T06:43:28.665Z,6.55
2018-09-24T06:44:14.765Z,7.83
2018-09-24T06:45:00.632Z,12.23
2018-09-24T06:45:46.310Z,8.58
2018-09-24T06:46:32.550Z,9.73
2018-09-24T06:47:18.396Z,8.90
2018-09-24T06:48:04.148Z,7.45
2018-09-24T06:48:50.167Z,9.63
2018-09-24T06:49:36.122Z,10.78
2018-09-24T06:50:21.729Z,9.55
2018-09-24T06:51:07.652Z,9.15
2018-09-24T06:51:53.216Z,8.15
2018-09-24T06:52:38.869Z,10.10
2018-09-24T06:53:24.617Z,8.85
2018-09-24T06:54:11.021Z,11.12
2018-09-24T06:54:56.932Z,9.50
2018-09-24T06:55:43.625Z,8.23
2018-09-24T06:56:29.321Z,9.25
2018-09-24T06:57:15.228Z,8.58
2018-09-24T06:58:00.976Z,9.48
2018-09-24T06:58:46.930Z,9.45
2018-09-24T06:59:32.957Z,10.70
2018-09-24T07:00:18.740Z,11.63
2018-09-24T07:06:09.800Z,5.30
2018-09-24T07:06:55.550Z,9.20
2018-09-24T07:07:41.473Z,9.90
2018-09-24T07:08:27.123Z,6.62
2018-09-24T07:09:13.723Z,7.85
2018-09-24T07:09:59.336Z,10.90
2018-09-24T07:10:45.198Z,9.90
2018-09-24T07:11:30.927Z,6.40
2018-09-24T07:12:16.555Z,8.90
2018-09-24T07:13:02.345Z,10.25
2018-09-24T07:13:48.152Z,8.43
2018-09-24T07:14:33.913Z,6.03
2018-09-24T07:15:19.572Z,7.55
2018-09-24T07:16:05.326Z,8.28
2018-09-24T07:16:51.405Z,8.00
2018-09-24T07:17:37.086Z,6.25
2018-09-24T07:18:22.860Z,9.75
2018-09-24T07:19:08.775Z,11.73
2018-09-24T07:19:54.636Z,7.97
2018-09-24T07:20:40.720Z,6.92
2018-09-24T07:21:26.391Z,8.58
2018-09-24T07:22:12.113Z,8.40
2018-09-24T07:22:57.984Z,8.53
2018-09-24T07:23:43.682Z,16.52
2018-09-24T07:24:29.387Z,8.95
2018-09-24T07:25:15.053Z,8.55
2018-09-24T07:26:00.753Z,7.05
2018-09-24T07:26:46.528Z,9.83
2018-09-24T07:27:32.259Z,8.58
2018-09-24T07:28:17.965Z,10.43
2018-09-24T07:29:03.677Z,7.60
2018-09-24T07:29:49.400Z,10.03
2018-09-24T07:30:35.323Z,9.55
2018-09-24T07:31:21.796Z,5.53
2018-09-24T07:32:07.591Z,7.17
2018-09-24T07:32:53.704Z,7.55
2018-09-24T07:33:39.622Z,7.80
2018-09-24T07:34:25.655Z,11.70
2018-09-24T07:35:11.325Z,11.12
2018-09-24T07:35:57.131Z,8.33
2018-09-24T07:36:43.292Z,5.87
2018-09-24T07:37:29.223Z,6.67
2018-09-24T07:38:14.756Z,9.13
2018-09-24T07:39:00.456Z,7.83
2018-09-24T07:39:46.223Z,10.05
2018-09-24T07:40:32.386Z,11.60
2018-09-24T07:41:18.144Z,9.75
2018-09-24T07:42:03.966Z,8.15
2018-09-24T07:42:49.747Z,8.68
2018-09-24T07:43:35.712Z,7.30
2018-09-24T07:44:21.693Z,6.37
2018-09-24T07:45:07.912Z,6.10
2018-09-24T07:45:53.901Z,11.63
2018-09-24T07:46:39.574Z,7.97
2018-09-24T07:47:25.500Z,7.60
2018-09-24T07:48:11.369Z,6.22
2018-09-24T07:48:57.077Z,8.15
2018-09-24T07:49:42.711Z,7.33
2018-09-24T07:50:29.040Z,9.18
2018-09-24T07:51:14.850Z,5.65
2018-09-24T07:52:00.953Z,9.55
2018-09-24T07:52:46.973Z,9.48
2018-09-24T07:53:32.930Z,6.85
2018-09-24T07:54:18.702Z,5.70
2018-09-24T07:55:04.443Z,9.78
2018-09-24T07:55:50.217Z,8.58
2018-09-24T07:56:36.469Z,7.00
2018-09-24T07:57:22.564Z,5.65
2018-09-24T07:58:08.607Z,6.83
2018-09-24T07:58:54.294Z,7.12
2018-09-24T07:59:41.109Z,8.65
2018-09-24T08:00:26.944Z,7.15
2018-09-24T08:01:12.801Z,6.45
2018-09-24T08:01:59.066Z,5.72
2018-09-24T08:02:44.672Z,7.62
2018-09-24T08:03:30.488Z,8.68
2018-09-24T08:04:16.247Z,6.28
2018-09-24T08:05:02.272Z,5.70
2018-09-24T08:05:48.292Z,6.33
2018-09-24T08:06:34.172Z,8.63
2018-09-24T08:07:20.163Z,7.60
2018-09-24T08:08:05.872Z,5.92
2018-09-24T08:08:51.557Z,7.00
2018-09-24T08:09:37.385Z,6.45
2018-09-24T08:10:23.174Z,7.20
2018-09-24T08:11:08.893Z,6.37
2018-09-24T08:11:54.561Z,8.13
2018-09-24T08:12:40.391Z,8.35
2018-09-24T08:13:26.361Z,7.83
2018-09-24T08:14:12.094Z,7.37
2018-09-24T08:14:58.005Z,10.38
2018-09-24T08:15:43.779Z,7.03
2018-09-24T08:16:29.335Z,6.70
2018-09-24T08:17:15.266Z,7.58
2018-09-24T08:18:00.999Z,9.78
2018-09-24T08:18:46.775Z,5.50
2018-09-24T08:19:32.585Z,7.43
2018-09-24T08:20:18.292Z,6.40
2018-09-24T08:21:04.014Z,7.10
2018-09-24T08:21:49.830Z,5.40
2018-09-24T08:22:35.675Z,7.07
2018-09-24T08:23:21.416Z,8.27
2018-09-24T08:24:07.312Z,7.03
2018-09-24T08:24:52.913Z,7.23
2018-09-24T08:25:38.913Z,6.87
2018-09-24T08:26:24.647Z,4.37
2018-09-24T08:27:10.651Z,6.37
2018-09-24T08:27:56.691Z,7.37
2018-09-24T08:28:43.656Z,6.40
2018-09-24T08:29:29.661Z,6.17
2018-09-24T08:30:15.228Z,6.40
2018-09-24T08:31:00.999Z,5.93
2018-09-24T08:31:46.781Z,7.40
2018-09-24T08:32:32.487Z,4.53
2018-09-24T08:33:18.267Z,5.33
2018-09-24T08:34:04.049Z,6.40
2018-09-24T08:34:49.700Z,5.67
2018-09-24T08:35:35.345Z,7.50
2018-09-24T08:36:21.121Z,4.03
2018-09-24T08:37:06.779Z,5.57
2018-09-24T08:37:52.557Z,6.07
2018-09-24T08:38:38.257Z,5.50
2018-09-24T08:39:24.006Z,9.47
2018-09-24T08:40:09.553Z,5.40
2018-09-24T08:40:55.395Z,7.93
2018-09-24T08:41:41.206Z,4.93
2018-09-24T08:42:26.898Z,6.27
2018-09-24T08:43:12.512Z,4.53
2018-09-24T08:43:58.296Z,5.13
2018-09-24T08:44:44.074Z,5.53
2018-09-24T08:45:29.797Z,5.77
2018-09-24T08:46:15.417Z,5.53
2018-09-24T08:47:01.063Z,5.20
2018-09-24T08:47:46.851Z,5.60
2018-09-24T08:48:32.464Z,5.27
2018-09-24T08:49:18.095Z,5.37
2018-09-24T08:50:03.986Z,4.47
2018-09-24T08:50:49.790Z,4.90
2018-09-24T08:51:35.621Z,5.07
2018-09-24T08:52:21.269Z,5.67
2018-09-24T08:53:07.289Z,7.20
2018-09-24T08:53:52.896Z,7.70
2018-09-24T08:54:38.618Z,7.47
2018-09-24T08:55:24.318Z,5.43
2018-09-24T08:56:10.078Z,8.33
2018-09-24T08:56:56.132Z,7.07
2018-09-24T08:57:41.649Z,10.07
2018-09-24T08:58:27.498Z,6.43
2018-09-24T08:59:13.188Z,7.27
2018-09-24T08:59:58.906Z,5.80
2018-09-24T09:00:44.895Z,5.00
2018-09-24T09:01:30.720Z,5.50
2018-09-24T09:02:16.437Z,3.53
2018-09-24T09:03:02.386Z,9.37
2018-09-24T09:03:48.193Z,5.87
2018-09-24T09:04:34.014Z,7.03
2018-09-24T09:05:19.766Z,5.92
2018-09-24T09:06:05.920Z,5.83
2018-09-24T09:06:51.673Z,3.85
2018-09-24T09:07:38.940Z,3.60
2018-09-24T09:08:31.345Z,5.93
2018-09-24T09:09:17.369Z,3.62
2018-09-24T09:10:03.265Z,7.90
2018-09-24T09:10:48.897Z,6.62
2018-09-24T09:11:34.570Z,4.77
2018-09-24T09:12:20.599Z,4.00
2018-09-24T09:13:06.279Z,5.47
2018-09-24T09:13:51.883Z,7.33
2018-09-24T09:14:37.868Z,6.40
2018-09-24T09:15:23.521Z,5.33
2018-09-24T09:16:09.177Z,7.15
2018-09-24T09:16:54.955Z,7.47
2018-09-24T09:17:40.955Z,3.85
2018-09-24T09:18:26.835Z,6.35
2018-09-24T09:19:12.695Z,4.00
2018-09-24T09:19:58.454Z,5.40
2018-09-24T09:20:44.644Z,4.90
2018-09-24T09:21:30.462Z,4.62
2018-09-24T09:22:16.383Z,5.15
2018-09-24T09:23:02.192Z,7.40
2018-09-24T09:23:47.535Z,5.70
2018-09-24T09:24:33.556Z,4.35
2018-09-24T09:25:19.364Z,8.70
2018-09-24T09:26:05.140Z,3.30
2018-09-24T09:26:51.094Z,4.42
2018-09-24T09:27:36.679Z,5.33
2018-09-24T09:28:22.412Z,4.70
2018-09-24T09:29:08.456Z,6.17
2018-09-24T09:29:54.142Z,5.15
2018-09-24T09:30:39.860Z,3.77
2018-09-24T09:31:25.681Z,7.05
2018-09-24T09:32:11.974Z,5.08
2018-09-24T09:32:57.627Z,8.58
2018-09-24T09:33:43.389Z,4.25
2018-09-24T09:34:29.284Z,4.85
2018-09-24T09:35:15.204Z,6.25
2018-09-24T09:36:00.854Z,5.60
2018-09-24T09:36:46.506Z,6.05
2018-09-24T09:37:32.314Z,5.53
2018-09-24T09:38:17.937Z,5.53